Terminal Aerodrome Forecast
Issued by NWS

Home | Current Version | Previous Version | Text Only | Print | Product List | Glossary On
Versions: 1 2 3 4 5 6 7 8 9 10 11 12 13 14 15 16 17 18 19 20 21 22 23 24 25
000
FTUS41 KOKX 162300
TAFHPN
TAF
KHPN 162330Z 1700/1724 35008KT P6SM SCT040 BKN060
     FM170400 VRB03KT P6SM FEW250
     FM171500 28005KT P6SM FEW050 FEW250
     FM172100 20006KT P6SM SCT050 SCT250
      AMD NOT SKED=

USA.gov is the U.S. government's official web portal to all federal, state and local government web resources and services.